Time;durP1;ratioP1;P1;durP2;ratioP2;P2;SDS_P1;SDS_P2;PMS_P1;PMS_P2;Temp;Humidity;BMP_temperature;BMP_pressure;BME280_temperature;BME280_humidity;BME280_pressure;Samples;Min_cycle;Max_cycle;Signal;HPM_P1;HPM_P2
2022/11/19 00:01:16;;;;;;;1.47;0.70;;;;;;;4.10;88.90;94132.70;1679164;85;21073;-72
2022/11/19 00:03:43;;;;;;;1.67;0.50;;;;;;;4.13;88.84;94147.00;1679413;85;21157;-72
2022/11/19 00:06:17;;;;;;;1.17;0.50;;;;;;;4.12;88.64;94151.38;1679614;85;21511;-72
2022/11/19 00:08:44;;;;;;;1.03;0.70;;;;;;;4.10;88.53;94158.36;1678334;85;21054;-72
2022/11/19 00:14:04;;;;;;;1.20;0.33;;;;;;;4.11;88.65;94173.60;1679722;85;21045;-72
2022/11/19 00:16:30;;;;;;;1.77;0.60;;;;;;;4.14;88.57;94179.22;1679036;85;21053;-72
2022/11/19 00:18:57;;;;;;;0.87;0.50;;;;;;;4.10;88.48;94188.38;1679376;85;21608;-72
2022/11/19 00:21:23;;;;;;;1.23;0.60;;;;;;;4.10;88.50;94192.30;1679469;85;21541;-72
2022/11/19 00:23:53;;;;;;;0.60;0.50;;;;;;;4.03;88.36;94200.25;1679066;85;21089;-73
2022/11/19 00:26:21;;;;;;;0.80;0.50;;;;;;;4.02;88.68;94205.06;1679415;85;21559;-73
2022/11/19 00:28:48;;;;;;;0.40;0.30;;;;;;;4.01;88.63;94218.56;1679152;85;21054;-72
2022/11/19 00:31:16;;;;;;;0.30;0.30;;;;;;;3.98;88.38;94222.53;1679046;85;21505;-73
2022/11/19 00:33:44;;;;;;;0.60;0.40;;;;;;;3.94;88.36;94225.20;1679353;85;21053;-72
2022/11/19 00:36:14;;;;;;;0.70;0.50;;;;;;;3.92;88.48;94243.48;1679126;85;21041;-72
2022/11/19 00:38:41;;;;;;;0.53;0.40;;;;;;;3.87;88.46;94243.54;1679374;85;21568;-72
2022/11/19 00:41:09;;;;;;;0.40;0.30;;;;;;;3.86;88.62;94250.96;1679386;85;21141;-72
2022/11/19 00:43:48;;;;;;;0.87;0.60;;;;;;;3.85;88.56;94262.27;1679051;85;21078;-72
2022/11/19 00:46:26;;;;;;;0.30;0.30;;;;;;;3.82;88.47;94267.98;1679400;85;21033;-72
2022/11/19 00:48:55;;;;;;;0.40;0.30;;;;;;;3.75;88.60;94281.98;1679357;85;21168;-72
2022/11/19 00:51:25;;;;;;;0.30;0.23;;;;;;;3.72;88.55;94283.34;1679403;85;21053;-72
2022/11/19 00:53:51;;;;;;;0.50;0.30;;;;;;;3.73;88.41;94291.16;1679407;85;21480;-72
2022/11/19 00:56:21;;;;;;;0.40;0.30;;;;;;;3.73;88.50;94296.38;1679105;85;21049;-71
2022/11/19 00:58:48;;;;;;;0.30;0.30;;;;;;;3.75;88.33;94302.86;1679319;85;21034;-72
2022/11/19 01:01:19;;;;;;;0.57;0.37;;;;;;;3.72;88.10;94306.81;1679141;85;21058;-72
2022/11/19 01:03:46;;;;;;;0.60;0.30;;;;;;;3.74;88.05;94315.50;1679478;85;21049;-72
2022/11/19 01:06:18;;;;;;;0.90;0.30;;;;;;;3.68;87.96;94317.30;1679044;85;22276;-72
2022/11/19 01:08:44;;;;;;;1.43;0.87;;;;;;;3.64;87.97;94311.69;1679486;85;21038;-72
2022/11/19 01:11:16;;;;;;;0.47;0.30;;;;;;;3.65;88.03;94321.67;1679122;85;21046;-71
2022/11/19 01:13:43;;;;;;;0.50;0.27;;;;;;;3.65;87.86;94330.39;1672791;85;21069;-72
2022/11/19 01:16:20;;;;;;;0.37;0.30;;;;;;;3.61;87.62;94327.83;1679470;85;21093;-72
2022/11/19 01:18:49;;;;;;;0.20;0.20;;;;;;;3.56;87.45;94324.42;1682996;85;21010;-72
2022/11/19 01:21:18;;;;;;;0.50;0.40;;;;;;;3.50;87.36;94325.33;1683045;85;21037;-72
2022/11/19 01:23:46;;;;;;;1.70;0.40;;;;;;;3.53;87.37;94329.64;1683041;85;21523;-71
2022/11/19 01:26:14;;;;;;;0.40;0.20;;;;;;;3.50;87.22;94325.77;1683029;85;21078;-71
2022/11/19 01:28:41;;;;;;;0.50;0.20;;;;;;;3.45;87.15;94337.55;1683106;85;21002;-72
2022/11/19 01:31:18;;;;;;;0.43;0.20;;;;;;;3.42;87.16;94338.45;1682957;85;21030;-71
2022/11/19 01:33:45;;;;;;;0.30;0.20;;;;;;;3.41;87.06;94347.17;1683005;85;21065;-72
2022/11/19 01:36:16;;;;;;;0.70;0.20;;;;;;;3.39;86.93;94348.07;1683016;85;21066;-72
2022/11/19 01:38:43;;;;;;;0.53;0.30;;;;;;;3.38;86.91;94354.18;1683129;85;21034;-72
2022/11/19 01:41:09;;;;;;;0.20;0.20;;;;;;;3.36;87.06;94352.02;1682958;85;21018;-72
2022/11/19 01:43:52;;;;;;;0.20;0.10;;;;;;;3.34;86.78;94356.38;1683237;85;21029;-72
2022/11/19 01:46:22;;;;;;;0.20;0.20;;;;;;;3.26;86.49;94368.20;1682891;85;21046;-72
2022/11/19 01:48:58;;;;;;;2.10;0.47;;;;;;;3.17;86.61;94366.97;1683524;85;20982;-72
2022/11/19 01:51:30;;;;;;;0.73;0.20;;;;;;;3.12;86.37;94368.31;1682198;85;21065;-72
2022/11/19 01:54:02;;;;;;;0.30;0.20;;;;;;;3.00;86.55;94374.53;1683089;85;21495;-72
2022/11/19 01:56:30;;;;;;;0.20;0.20;;;;;;;2.96;86.57;94380.64;1682298;85;21080;-71
2022/11/19 01:59:05;;;;;;;0.50;0.20;;;;;;;2.91;86.78;94390.68;1683108;85;21065;-71
2022/11/19 02:01:32;;;;;;;0.50;0.30;;;;;;;2.86;86.70;94402.88;1682874;85;21037;-71
2022/11/19 02:04:01;;;;;;;0.47;0.20;;;;;;;2.84;87.04;94403.33;1683022;85;21075;-72
2022/11/19 02:06:33;;;;;;;0.23;0.20;;;;;;;2.81;86.89;94409.42;1683002;85;21555;-71
2022/11/19 02:09:00;;;;;;;0.37;0.20;;;;;;;2.77;86.92;94417.72;1682975;85;21550;-71
2022/11/19 02:11:55;;;;;;;0.50;0.10;;;;;;;2.77;87.04;94419.02;1683089;85;21033;-71
2022/11/19 02:14:50;;;;;;;0.20;0.20;;;;;;;2.78;87.04;94431.59;1682681;85;20986;-71
2022/11/19 02:17:39;;;;;;;0.20;0.10;;;;;;;2.78;86.98;94432.45;1682332;85;21122;-72
2022/11/19 02:20:44;;;;;;;0.30;0.20;;;;;;;2.76;87.02;94438.55;1683119;85;21046;-72
2022/11/19 02:23:44;;;;;;;0.33;0.20;;;;;;;2.74;86.90;94448.11;1682864;85;21046;-72
2022/11/19 02:26:34;;;;;;;0.20;0.20;;;;;;;2.70;86.94;94446.42;1683243;85;20986;-72
2022/11/19 02:29:32;;;;;;;0.30;0.30;;;;;;;2.68;87.07;94451.63;1654928;87;21069;-72
2022/11/19 02:32:25;;;;;;;2.13;0.33;;;;;;;2.64;86.98;94455.56;1683084;85;21002;-72
2022/11/19 02:35:21;;;;;;;1.03;0.43;;;;;;;2.62;87.14;94462.52;1683089;85;21038;-71
2022/11/19 02:38:23;;;;;;;0.30;0.30;;;;;;;2.60;87.17;94469.91;1682768;85;21010;-71
2022/11/19 02:40:55;;;;;;;0.40;0.40;;;;;;;2.62;87.33;94476.83;1682620;85;21055;-71
2022/11/19 02:43:38;;;;;;;0.63;0.40;;;;;;;2.61;87.24;94477.28;1701863;84;21523;-71
2022/11/19 02:46:09;;;;;;;0.40;0.40;;;;;;;2.57;87.08;94482.95;1651025;87;21002;-70
2022/11/19 02:48:44;;;;;;;0.67;0.60;;;;;;;2.59;87.49;94491.59;1698245;84;21022;-72
2022/11/19 02:51:12;;;;;;;0.40;0.40;;;;;;;2.66;87.52;94504.59;1650437;87;20995;-71
2022/11/19 02:53:39;;;;;;;0.80;0.50;;;;;;;2.73;87.60;94503.70;1699054;84;21018;-71
2022/11/19 02:56:16;;;;;;;0.70;0.50;;;;;;;2.72;87.23;94505.85;1650810;87;21496;-72
2022/11/19 03:04:29;;;;;;;0.60;0.50;;;;;;;2.77;87.47;94534.04;1650582;87;21050;-72
2022/11/19 03:07:09;;;;;;;0.47;0.30;;;;;;;2.86;87.75;94544.41;1673713;84;21006;-72
2022/11/19 03:09:41;;;;;;;0.40;0.30;;;;;;;2.94;87.72;94553.05;1650695;87;21047;-72
2022/11/19 03:12:16;;;;;;;0.60;0.40;;;;;;;2.99;87.56;94564.30;1699029;84;20990;-72
2022/11/19 03:18:13;;;;;;;0.70;0.53;;;;;;;3.09;87.37;94583.36;1650615;87;21039;-72
2022/11/19 03:20:47;;;;;;;1.50;0.60;;;;;;;3.14;87.25;94585.94;1651057;87;21024;-71
2022/11/19 03:23:28;;;;;;;1.20;0.50;;;;;;;3.14;87.13;94586.80;1679882;85;20989;-71
2022/11/19 03:26:36;;;;;;;0.93;0.50;;;;;;;3.15;87.30;94593.77;1677893;84;20994;-71
2022/11/19 03:29:07;;;;;;;0.93;0.50;;;;;;;3.17;87.18;94588.52;1681690;85;21038;-71
2022/11/19 03:31:34;;;;;;;0.70;0.50;;;;;;;3.18;87.06;94589.83;1701800;84;21014;-71
2022/11/19 03:34:09;;;;;;;0.47;0.47;;;;;;;3.19;87.06;94594.59;1650827;87;21014;-72
2022/11/19 03:36:39;;;;;;;1.90;0.50;;;;;;;3.17;87.10;94607.63;1650898;87;21050;-71
2022/11/19 03:39:13;;;;;;;0.70;0.50;;;;;;;3.14;87.13;94608.95;1647313;86;21585;-71
2022/11/19 03:41:41;;;;;;;0.90;0.53;;;;;;;3.15;87.20;94618.94;1640126;87;21015;-71
2022/11/19 03:44:15;;;;;;;0.50;0.50;;;;;;;3.18;87.33;94625.02;1640191;87;21065;-72
2022/11/19 03:46:45;;;;;;;0.50;0.50;;;;;;;3.18;87.12;94629.38;1650662;87;21053;-72
2022/11/19 03:49:14;;;;;;;0.60;0.60;;;;;;;3.15;87.16;94630.26;1640044;87;21014;-72
2022/11/19 03:51:55;;;;;;;0.57;0.57;;;;;;;3.13;87.09;94622.02;1650802;87;21023;-72
2022/11/19 03:54:21;;;;;;;0.70;0.67;;;;;;;3.15;87.23;94630.26;1668519;86;21044;-72
2022/11/19 03:56:49;;;;;;;1.13;0.80;;;;;;;3.13;87.21;94635.05;1668452;86;21052;-72
2022/11/19 03:59:16;;;;;;;1.53;0.70;;;;;;;3.11;87.47;94638.09;1668557;86;21067;-72
2022/11/19 04:01:45;;;;;;;1.87;1.10;;;;;;;3.09;87.36;94643.30;1668523;86;21084;-72
2022/11/19 04:06:57;;;;;;;1.10;0.83;;;;;;;3.00;87.57;94637.72;1668311;85;21589;-71
2022/11/19 04:09:23;;;;;;;1.23;1.00;;;;;;;2.93;87.54;94647.73;1668471;86;21483;-71
2022/11/19 04:11:49;;;;;;;1.17;1.07;;;;;;;2.85;87.88;94647.31;1668428;85;20997;-71
2022/11/19 04:14:16;;;;;;;4.60;1.10;;;;;;;2.80;87.79;94655.18;1668444;86;21037;-71
2022/11/19 04:16:43;;;;;;;1.77;1.20;;;;;;;2.78;88.04;94666.03;1668311;86;21466;-71
2022/11/19 04:19:09;;;;;;;0.77;0.77;;;;;;;2.77;88.02;94664.28;1668501;86;21084;-71
2022/11/19 04:21:36;;;;;;;0.90;0.80;;;;;;;2.66;88.53;94669.53;1668400;85;21068;-71
2022/11/19 04:24:03;;;;;;;2.27;1.20;;;;;;;2.60;88.50;94669.57;1668456;85;21064;-71
2022/11/19 04:26:30;;;;;;;1.33;1.10;;;;;;;2.53;88.65;94667.84;1668529;86;21004;-72
2022/11/19 04:28:57;;;;;;;1.10;0.90;;;;;;;2.48;89.28;94670.90;1668426;85;21057;-72
2022/11/19 04:31:23;;;;;;;1.20;1.10;;;;;;;2.46;89.34;94677.40;1668542;85;21028;-71
2022/11/19 04:33:49;;;;;;;1.17;1.00;;;;;;;2.48;89.21;94673.06;1668360;85;21551;-72
2022/11/19 04:36:16;;;;;;;1.33;0.97;;;;;;;2.54;89.15;94673.03;1668438;85;21091;-72
2022/11/19 04:38:42;;;;;;;2.97;1.87;;;;;;;2.60;89.37;94678.24;1668358;85;21570;-72
2022/11/19 04:41:09;;;;;;;2.60;1.67;;;;;;;2.67;89.32;94676.91;1668572;85;21056;-71
2022/11/19 04:43:36;;;;;;;2.93;1.47;;;;;;;2.70;89.49;94678.23;1668496;86;21073;-71
2022/11/19 04:46:02;;;;;;;3.53;1.60;;;;;;;2.76;89.31;94680.80;1668488;85;21111;-71
2022/11/19 04:48:29;;;;;;;3.67;1.70;;;;;;;2.78;89.10;94682.97;1668403;86;21098;-71
2022/11/19 04:50:56;;;;;;;2.60;0.90;;;;;;;2.84;89.25;94682.93;1668332;85;21104;-71
2022/11/19 04:53:23;;;;;;;1.53;0.70;;;;;;;2.91;89.12;94678.58;1668378;86;21032;-71
2022/11/19 04:55:49;;;;;;;2.00;0.77;;;;;;;2.96;88.97;94695.06;1668328;86;21056;-71
2022/11/19 04:58:16;;;;;;;0.83;0.70;;;;;;;3.01;89.00;94693.30;1668584;85;21021;-71
2022/11/19 05:00:42;;;;;;;1.40;0.87;;;;;;;3.06;88.80;94693.29;1668495;85;21068;-71
2022/11/19 05:03:09;;;;;;;1.27;0.90;;;;;;;3.09;88.65;94696.73;1668170;86;21012;-71
2022/11/19 05:05:35;;;;;;;1.40;0.87;;;;;;;3.12;88.51;94697.16;1668485;86;21088;-71
2022/11/19 05:08:02;;;;;;;0.80;0.77;;;;;;;3.11;88.28;94714.98;1668600;86;21080;-71
2022/11/19 05:10:28;;;;;;;1.57;1.10;;;;;;;3.11;88.28;94715.84;1668249;86;21519;-71
2022/11/19 05:12:55;;;;;;;1.27;1.00;;;;;;;3.12;88.09;94712.80;1668507;86;21040;-72
2022/11/19 05:15:21;;;;;;;1.50;1.00;;;;;;;3.14;88.00;94729.30;1668480;86;20997;-71
2022/11/19 05:17:48;;;;;;;3.33;1.00;;;;;;;3.14;87.96;94735.38;1668373;86;21040;-71
2022/11/19 05:20:15;;;;;;;3.00;0.90;;;;;;;3.14;87.93;94737.12;1668456;85;21572;-71
2022/11/19 05:22:41;;;;;;;2.80;0.90;;;;;;;3.19;88.05;94736.66;1668489;85;21574;-71
2022/11/19 05:25:08;;;;;;;1.10;1.00;;;;;;;3.19;87.78;94739.27;1668272;86;21591;-70
2022/11/19 05:27:35;;;;;;;1.63;0.70;;;;;;;3.18;87.67;94746.23;1668405;86;21032;-71
2022/11/19 05:30:03;;;;;;;1.90;1.33;;;;;;;3.21;87.60;94744.91;1668386;85;21068;-71
2022/11/19 05:32:30;;;;;;;2.90;1.20;;;;;;;3.22;87.66;94742.72;1668514;86;21040;-71
2022/11/19 05:34:56;;;;;;;0.97;0.83;;;;;;;3.22;87.66;94757.50;1668480;85;21545;-71
2022/11/19 05:37:23;;;;;;;1.37;1.00;;;;;;;3.22;87.68;94764.02;1668495;86;21092;-71
2022/11/19 05:39:49;;;;;;;0.97;0.80;;;;;;;3.20;87.55;94761.84;1667545;85;21506;-71
2022/11/19 05:42:16;;;;;;;1.53;1.13;;;;;;;3.18;87.33;94766.22;1624352;88;21082;-71
2022/11/19 05:44:43;;;;;;;2.20;1.50;;;;;;;3.14;87.16;94783.59;1666004;86;21545;-71
2022/11/19 05:47:09;;;;;;;1.73;1.20;;;;;;;3.12;87.33;94784.03;1624163;88;21053;-70
2022/11/19 05:49:36;;;;;;;1.47;1.10;;;;;;;3.12;87.39;94789.24;1624305;88;21046;-71
2022/11/19 05:52:03;;;;;;;1.97;1.33;;;;;;;3.07;87.21;94793.60;1624202;88;21189;-71
2022/11/19 05:54:30;;;;;;;0.90;0.80;;;;;;;3.07;87.48;94796.65;1624344;88;21053;-71
2022/11/19 05:56:57;;;;;;;1.53;1.17;;;;;;;2.99;87.60;94788.41;1624415;88;21062;-71
2022/11/19 05:59:23;;;;;;;1.23;1.13;;;;;;;2.97;87.73;94801.02;1624224;88;21077;-71
2022/11/19 06:01:50;;;;;;;1.63;0.90;;;;;;;2.94;87.75;94814.91;1624341;88;21106;-71
2022/11/19 06:04:16;;;;;;;0.70;0.70;;;;;;;2.88;87.97;94813.63;1665878;86;21023;-71
2022/11/19 06:06:43;;;;;;;2.20;1.70;;;;;;;2.84;88.26;94827.97;1624232;88;21061;-71
2022/11/19 06:09:10;;;;;;;3.87;2.13;;;;;;;2.79;88.28;94823.62;1624330;88;21066;-71
2022/11/19 06:11:49;;;;;;;2.17;1.80;;;;;;;2.72;88.62;94834.05;1666109;86;20968;-70
2022/11/19 06:14:23;;;;;;;3.03;2.00;;;;;;;2.62;89.06;94834.92;1624130;88;21549;-71
2022/11/19 06:16:56;;;;;;;4.37;2.52;;;;;;;2.59;89.02;94843.60;1624521;88;21002;-71
2022/11/19 06:19:23;;;;;;;2.55;2.30;;;;;;;2.55;89.24;94858.38;1666124;86;21047;-70
2022/11/19 06:21:51;;;;;;;2.10;1.90;;;;;;;2.54;89.33;94857.05;1624120;88;21527;-71
2022/11/19 06:24:18;;;;;;;2.70;1.90;;;;;;;2.54;89.34;94852.71;1624395;88;21090;-71
2022/11/19 06:26:44;;;;;;;2.10;1.60;;;;;;;2.57;89.21;94851.44;1624352;88;21592;-71
2022/11/19 06:29:15;;;;;;;2.13;1.50;;;;;;;2.62;89.15;94857.05;1666006;86;21019;-71
2022/11/19 06:31:42;;;;;;;2.83;2.20;;;;;;;2.60;89.12;94862.28;1624722;88;21010;-71
2022/11/19 06:34:09;;;;;;;2.37;1.60;;;;;;;2.59;89.07;94861.83;1665849;86;20983;-71
2022/11/19 06:36:36;;;;;;;2.77;1.87;;;;;;;2.56;89.25;94858.80;1624246;88;21046;-71
2022/11/19 06:39:03;;;;;;;5.90;2.50;;;;;;;2.56;89.34;94862.70;1666057;86;21047;-71
2022/11/19 06:41:29;;;;;;;3.53;2.77;;;;;;;2.59;89.40;94866.59;1662850;86;21027;-71
2022/11/19 06:43:56;;;;;;;4.87;3.27;;;;;;;2.64;89.42;94869.21;1666131;86;21490;-71
2022/11/19 06:46:22;;;;;;;5.87;4.40;;;;;;;;;;1666124;86;21035;-71
2022/11/19 06:48:49;;;;;;;3.63;3.10;;;;;;;2.72;89.27;94884.84;1666065;86;21023;-71
2022/11/19 06:51:15;;;;;;;5.43;3.60;;;;;;;2.76;89.33;94891.80;1666232;86;21071;-71
2022/11/19 06:53:42;;;;;;;5.43;3.83;;;;;;;2.83;89.65;94911.78;1666259;86;21058;-70
2022/11/19 06:56:09;;;;;;;8.47;5.00;;;;;;;2.89;89.53;94913.06;1666228;86;21015;-71
2022/11/19 06:58:36;;;;;;;5.33;4.17;;;;;;;2.94;89.23;94920.45;1666130;86;21011;-71
2022/11/19 07:01:03;;;;;;;4.63;3.37;;;;;;;2.98;89.09;94931.76;1666211;86;21573;-71
2022/11/19 07:03:30;;;;;;;5.27;4.30;;;;;;;3.06;89.06;94942.18;1666010;86;20955;-71
2022/11/19 07:06:00;;;;;;;6.87;4.60;;;;;;;3.14;89.07;94941.30;1666228;86;21015;-71
2022/11/19 07:08:30;;;;;;;7.70;4.80;;;;;;;3.23;88.82;94945.65;1666261;86;20992;-71
2022/11/19 07:10:56;;;;;;;5.93;4.33;;;;;;;3.29;88.46;94946.94;1666230;86;21012;-71
2022/11/19 07:13:22;;;;;;;5.50;4.70;;;;;;;3.28;87.90;94950.42;1666153;86;21023;-71
2022/11/19 07:15:49;;;;;;;6.03;4.70;;;;;;;3.23;87.90;94962.16;1666199;86;21031;-71
2022/11/19 07:18:15;;;;;;;6.97;4.40;;;;;;;3.22;87.62;94969.97;1666011;86;20991;-71
2022/11/19 07:20:45;;;;;;;6.13;3.97;;;;;;;3.20;87.63;94980.41;1666303;86;21071;-71
2022/11/19 07:23:12;;;;;;;5.47;3.67;;;;;;;3.18;88.01;94986.49;1666205;86;21485;-71
2022/11/19 07:25:38;;;;;;;4.30;3.57;;;;;;;3.25;88.25;94989.51;1666197;86;21577;-72
2022/11/19 07:28:05;;;;;;;3.10;2.80;;;;;;;3.30;87.93;94986.50;1666334;86;20983;-71
2022/11/19 07:30:31;;;;;;;3.60;3.00;;;;;;;3.36;87.87;94996.91;1666057;86;21454;-71
2022/11/19 07:32:58;;;;;;;4.50;3.27;;;;;;;3.45;87.94;95004.73;1665979;86;21446;-71
2022/11/19 07:35:25;;;;;;;3.77;2.87;;;;;;;3.54;87.94;95011.67;1666188;86;21047;-71
2022/11/19 07:37:51;;;;;;;3.87;2.93;;;;;;;3.58;87.43;95010.81;1666149;86;21000;-71
2022/11/19 07:40:18;;;;;;;3.93;2.93;;;;;;;3.60;87.08;95025.14;1669516;85;21032;-71
2022/11/19 07:42:48;;;;;;;3.60;3.10;;;;;;;3.56;86.99;95017.77;1679849;85;21047;-71
2022/11/19 07:45:18;;;;;;;4.67;3.60;;;;;;;3.51;86.97;95028.64;1679640;85;21047;-71
2022/11/19 07:47:45;;;;;;;4.53;3.77;;;;;;;3.45;86.75;95030.82;1680219;85;21043;-71
2022/11/19 07:50:12;;;;;;;7.33;4.27;;;;;;;3.44;87.08;95030.37;1679528;85;21190;-71
2022/11/19 07:52:39;;;;;;;7.00;4.90;;;;;;;3.46;87.16;95036.45;1679577;85;21514;-71
2022/11/19 07:55:07;;;;;;;7.33;5.43;;;;;;;3.39;86.80;95037.32;1679608;85;21108;-71
2022/11/19 07:57:34;;;;;;;5.17;4.30;;;;;;;3.37;86.97;95038.19;1679741;85;21051;-72
2022/11/19 08:00:02;;;;;;;6.17;3.63;;;;;;;3.33;87.09;95041.25;1679571;85;21055;-72
2022/11/19 08:02:30;;;;;;;5.57;4.27;;;;;;;3.28;86.99;95038.20;1680885;84;20988;-72
2022/11/19 08:04:58;;;;;;;6.93;4.90;;;;;;;3.17;86.92;95042.09;1679602;85;21024;-72
2022/11/19 08:07:24;;;;;;;7.33;4.70;;;;;;;3.09;87.05;95045.98;1679662;85;21000;-72
2022/11/19 08:09:51;;;;;;;7.60;5.57;;;;;;;3.01;87.11;95056.41;1679689;85;21056;-72
2022/11/19 08:12:17;;;;;;;6.30;5.10;;;;;;;3.00;87.44;95061.64;1679656;85;21024;-72
2022/11/19 08:14:44;;;;;;;7.13;5.43;;;;;;;3.03;87.39;95062.94;1679697;85;21048;-72
2022/11/19 08:19:56;;;;;;;8.73;5.10;;;;;;;3.05;87.54;95067.73;1679758;85;21043;-71
2022/11/19 08:22:22;;;;;;;8.30;5.80;;;;;;;3.11;87.94;95070.77;1679797;85;21031;-71
2022/11/19 08:24:49;;;;;;;7.33;5.50;;;;;;;3.12;87.82;95073.80;1679770;85;21012;-71
2022/11/19 08:27:17;;;;;;;7.57;5.60;;;;;;;3.19;87.92;95080.77;1679719;85;21542;-71
2022/11/19 08:29:44;;;;;;;7.67;6.03;;;;;;;3.16;87.36;95084.23;1679609;85;21067;-71
2022/11/19 08:32:10;;;;;;;9.97;6.03;;;;;;;3.12;87.45;95086.39;1679683;85;21024;-71
2022/11/19 08:34:37;;;;;;;10.53;6.10;;;;;;;3.17;87.69;95092.92;1679500;85;21000;-72
2022/11/19 08:37:03;;;;;;;8.07;5.90;;;;;;;3.17;87.70;95089.02;1679702;85;21052;-72
2022/11/19 08:39:30;;;;;;;7.23;5.47;;;;;;;3.15;87.59;95090.73;1679528;85;21043;-71
2022/11/19 08:44:42;;;;;;;8.83;6.13;;;;;;;3.01;87.60;95098.55;1668538;85;21388;-72
2022/11/19 08:47:09;;;;;;;8.70;6.23;;;;;;;3.02;87.65;95101.58;1668512;86;21511;-72
2022/11/19 08:49:35;;;;;;;11.27;7.00;;;;;;;2.99;87.62;95098.97;1668362;85;21080;-72
2022/11/19 08:52:02;;;;;;;8.80;6.50;;;;;;;3.05;88.01;95105.52;1668533;85;21017;-72
2022/11/19 08:54:28;;;;;;;8.60;6.73;;;;;;;3.15;88.02;95102.06;1668422;86;21088;-72
2022/11/19 08:56:55;;;;;;;9.40;6.67;;;;;;;3.17;87.67;95096.83;1668435;85;21558;-71
2022/11/19 08:59:22;;;;;;;8.90;6.17;;;;;;;3.19;87.82;95101.18;1668385;85;21080;-71
2022/11/19 09:01:49;;;;;;;9.17;6.70;;;;;;;3.28;87.90;95110.77;1668613;86;21024;-72
2022/11/19 09:04:16;;;;;;;9.07;6.53;;;;;;;3.38;87.74;95124.27;1668155;86;21046;-71
2022/11/19 09:06:43;;;;;;;9.83;7.17;;;;;;;3.39;87.32;95130.34;1668420;86;21119;-71
2022/11/19 09:09:10;;;;;;;11.63;8.10;;;;;;;3.34;87.19;95134.23;1668421;86;21049;-71
2022/11/19 09:11:37;;;;;;;12.10;7.90;;;;;;;3.41;87.28;95133.83;1691025;85;21088;-71
2022/11/19 09:14:03;;;;;;;13.20;9.00;;;;;;;3.41;87.33;95137.73;1668391;85;21052;-72
2022/11/19 09:16:30;;;;;;;13.40;8.97;;;;;;;3.42;87.05;95131.64;1668457;86;21027;-72
2022/11/19 09:18:57;;;;;;;13.73;7.67;;;;;;;3.47;87.53;95135.98;1668257;85;21108;-71
2022/11/19 09:21:23;;;;;;;12.23;8.03;;;;;;;3.55;87.11;95136.44;1668509;86;21040;-71
2022/11/19 09:23:50;;;;;;;12.23;7.50;;;;;;;3.53;86.89;95144.69;1668415;86;21052;-71
2022/11/19 09:26:18;;;;;;;12.00;8.30;;;;;;;3.52;86.85;95145.57;1668162;85;21024;-72
2022/11/19 09:28:45;;;;;;;11.03;7.03;;;;;;;3.41;86.30;95147.73;1668416;85;21060;-71
2022/11/19 09:31:15;;;;;;;11.50;7.77;;;;;;;3.37;86.73;95151.63;1645125;86;21441;-71
2022/11/19 09:33:46;;;;;;;11.67;8.23;;;;;;;3.37;87.10;95145.97;1668323;86;21044;-70
2022/11/19 09:36:14;;;;;;;14.27;8.93;;;;;;;3.39;87.00;95151.20;1668404;85;21594;-71
2022/11/19 09:38:41;;;;;;;10.60;7.47;;;;;;;3.40;87.11;95146.00;1668297;86;21491;-71
2022/11/19 09:41:45;;;;;;;10.93;6.97;;;;;;;3.39;86.97;95148.16;1668300;85;21064;-71
2022/11/19 09:44:20;;;;;;;11.25;7.87;;;;;;;3.39;87.19;95155.98;1668535;86;21503;-71
2022/11/19 09:47:10;;;;;;;14.53;9.90;;;;;;;3.39;87.26;95147.29;1668401;85;21534;-71
2022/11/19 09:49:42;;;;;;;14.73;8.90;;;;;;;3.42;87.18;95136.86;1668432;86;21108;-71
2022/11/19 09:52:14;;;;;;;12.20;8.27;;;;;;;3.46;87.43;95136.01;1668397;85;21539;-71
2022/11/19 09:54:46;;;;;;;12.53;8.03;;;;;;;3.52;87.30;95126.01;1668609;86;21519;-71
2022/11/19 09:57:26;;;;;;;11.87;8.70;;;;;;;3.53;87.09;95124.72;1667965;86;21072;-72
2022/11/19 09:59:57;;;;;;;12.80;8.60;;;;;;;3.55;87.15;95119.48;1668590;85;21048;-71
2022/11/19 10:02:23;;;;;;;13.93;8.03;;;;;;;3.60;87.19;95129.08;1668465;86;21071;-72
2022/11/19 10:04:51;;;;;;;12.77;8.07;;;;;;;3.60;86.92;95130.37;1668222;85;21020;-72
2022/11/19 10:07:29;;;;;;;12.00;8.10;;;;;;;3.63;87.06;95130.37;1668158;85;21025;-71
2022/11/19 10:10:16;;;;;;;11.70;7.60;;;;;;;3.72;87.20;95130.80;1668992;85;21023;-72
2022/11/19 10:13:13;;;;;;;10.87;7.80;;;;;;;3.80;86.70;95123.84;1667917;86;21080;-72
2022/11/19 10:15:59;;;;;;;9.10;6.77;;;;;;;3.83;86.88;95131.69;1668393;86;21057;-71
2022/11/19 10:18:49;;;;;;;9.43;6.63;;;;;;;3.90;86.42;95140.36;1651421;86;21063;-72
2022/11/19 10:21:30;;;;;;;9.80;6.47;;;;;;;3.95;85.87;95144.28;1668146;86;21024;-72
2022/11/19 10:24:02;;;;;;;10.83;7.00;;;;;;;3.95;86.23;95146.89;1668156;86;21068;-72
2022/11/19 10:26:35;;;;;;;7.60;5.07;;;;;;;3.97;86.00;95148.63;1667353;86;21527;-71
2022/11/19 10:29:10;;;;;;;7.60;5.22;;;;;;;3.94;85.70;95151.70;1668299;85;21064;-72
2022/11/19 10:31:44;;;;;;;12.70;6.47;;;;;;;3.88;85.54;95155.15;1668669;85;21040;-72
2022/11/19 10:34:27;;;;;;;7.93;5.87;;;;;;;3.81;85.95;95159.52;1668264;85;21064;-72
2022/11/19 10:37:06;;;;;;;9.73;6.60;;;;;;;3.85;86.33;95149.49;1668471;86;21056;-72
2022/11/19 10:39:40;;;;;;;7.70;5.60;;;;;;;3.95;86.49;95150.37;1666968;86;21076;-72
2022/11/19 10:42:33;;;;;;;8.77;6.10;;;;;;;4.01;86.37;95143.86;1675511;85;21055;-72
2022/11/19 10:45:20;;;;;;;8.87;6.10;;;;;;;4.09;86.55;95139.94;1679618;85;21039;-72
2022/11/19 10:48:22;;;;;;;8.40;6.33;;;;;;;4.15;86.04;95136.00;1679552;85;21566;-72
2022/11/19 10:50:50;;;;;;;9.87;5.77;;;;;;;4.14;85.45;95132.97;1679408;85;21040;-73
2022/11/19 10:53:35;;;;;;;10.67;6.30;;;;;;;4.14;85.83;95138.19;1679258;85;21136;-73
2022/11/19 10:56:15;;;;;;;10.93;6.57;;;;;;;4.20;86.23;95129.03;1679657;85;21071;-72
2022/11/19 10:58:52;;;;;;;8.83;5.60;;;;;;;4.22;85.61;95122.06;1679269;85;21060;-72
2022/11/19 11:01:30;;;;;;;9.90;6.37;;;;;;;4.21;85.67;95128.58;1679588;85;21004;-72
2022/11/19 11:04:19;;;;;;;10.00;5.67;;;;;;;4.24;85.86;95131.22;1650865;85;21125;-72
2022/11/19 11:06:59;;;;;;;7.73;6.00;;;;;;;4.30;85.55;95126.83;1679541;85;21564;-72
2022/11/19 11:09:41;;;;;;;10.33;7.13;;;;;;;4.29;85.68;95129.47;1679233;85;21133;-72
2022/11/19 11:15:26;;;;;;;10.17;6.63;;;;;;;4.32;85.49;95142.06;1679289;85;21162;-72
2022/11/19 11:18:04;;;;;;;9.17;6.30;;;;;;;4.28;85.45;95132.52;1679699;85;20988;-72
2022/11/19 11:20:32;;;;;;;7.80;6.40;;;;;;;4.24;85.32;95134.69;1679885;84;21490;-72
2022/11/19 11:23:16;;;;;;;8.80;6.97;;;;;;;4.24;85.81;95128.61;1679533;85;21016;-72
2022/11/19 11:26:09;;;;;;;10.20;7.43;;;;;;;4.29;86.00;95122.49;1679200;85;21075;-73
2022/11/19 11:28:36;;;;;;;10.03;7.10;;;;;;;4.39;85.89;95125.96;1679872;85;21063;-72
2022/11/19 11:31:07;;;;;;;11.23;6.73;;;;;;;4.48;85.69;95132.89;1650076;85;21067;-72
2022/11/19 11:33:40;;;;;;;8.37;5.73;;;;;;;4.55;85.59;95134.62;1680006;85;21051;-72
2022/11/19 11:36:15;;;;;;;;;;;;;;;4.59;85.26;95137.67;1682011;85;21450;-73
2022/11/19 11:38:52;;;;;;;9.10;6.37;;;;;;;4.63;85.27;95138.52;1679751;85;20463;-72
2022/11/19 11:41:34;;;;;;;8.13;6.13;;;;;;;4.67;84.83;95134.58;1679579;85;21076;-73
2022/11/19 11:44:08;;;;;;;8.70;6.47;;;;;;;4.75;85.49;95136.73;1679887;85;21096;-72
2022/11/19 11:46:49;;;;;;;10.17;7.10;;;;;;;4.90;85.52;95142.78;1679644;85;21054;-72
2022/11/19 11:49:44;;;;;;;10.50;6.43;;;;;;;5.06;85.72;95146.19;1679444;85;21024;-72
2022/11/19 11:52:35;;;;;;;6.77;4.90;;;;;;;5.20;85.45;95138.71;1679786;84;21095;-72
2022/11/19 11:55:13;;;;;;;7.17;4.70;;;;;;;5.35;85.14;95143.00;1679434;85;21071;-72
2022/11/19 11:58:01;;;;;;;6.67;5.57;;;;;;;5.35;83.71;95149.53;1679727;85;21009;-72
2022/11/19 12:00:42;;;;;;;10.53;7.17;;;;;;;5.41;84.29;95154.72;1679791;84;21068;-72
2022/11/19 12:03:17;;;;;;;8.00;6.70;;;;;;;5.31;82.50;95162.19;1699154;84;21551;-72
2022/11/19 12:06:06;;;;;;;7.67;5.30;;;;;;;5.17;82.51;95170.56;1650655;87;21042;-72
2022/11/19 12:08:58;;;;;;;9.57;7.10;;;;;;;5.12;82.93;95174.50;1652142;87;21120;-72
2022/11/19 12:11:54;;;;;;;9.93;6.87;;;;;;;5.14;83.01;95177.09;1701968;84;21026;-73
2022/11/19 12:14:38;;;;;;;7.87;5.70;;;;;;;5.18;83.41;95178.83;1679775;85;21577;-72
2022/11/19 12:17:38;;;;;;;6.67;5.10;;;;;;;5.10;82.56;95171.47;1679965;85;21112;-73
2022/11/19 12:20:40;;;;;;;6.30;4.73;;;;;;;5.06;82.63;95174.95;1701758;84;21034;-73
2022/11/19 12:23:24;;;;;;;7.87;5.63;;;;;;;4.99;82.89;95178.05;1637700;87;21035;-72
2022/11/19 12:26:21;;;;;;;;;;;;;;;4.95;82.98;95179.79;1653418;87;21025;-72
2022/11/19 12:29:06;;;;;;;8.97;6.00;;;;;;;4.94;83.21;95188.97;1677960;84;20110;-72